Terminal Aerodrome Forecast
Issued by NWS

Home | Current Version | Previous Version | Text Only | Print | Product List | Glossary On
Versions: 1 2 3 4 5 6 7 8 9 10 11 12 13 14
000
FTAK31 PAJN 231500 AAA
TAFASI
TAF AMD
PASI 231541Z 2316/2412 34005KT P6SM -SHRA BKN030 OVC060
     FM231800 30006KT P6SM VCSH SCT040 BKN060
     FM240000 29008KT P6SM FEW040 SCT080
     FM240400 33004KT P6SM FEW040 FEW200=

USA.gov is the U.S. government's official web portal to all federal, state and local government web resources and services.